Time;durP1;ratioP1;P1;durP2;ratioP2;P2;SDS_P1;SDS_P2;PMS_P1;PMS_P2;Temp;Humidity;BMP_temperature;BMP_pressure;BME280_temperature;BME280_humidity;BME280_pressure;Samples;Min_cycle;Max_cycle;Signal;HPM_P1;HPM_P2
2021/03/25 00:00:54;;;;;;;21.98;6.10;;;10.20;99.90;;;;;;4960450;28;20640;-77
2021/03/25 00:03:21;;;;;;;9.55;4.30;;;10.20;99.90;;;;;;4966737;28;20182;-76
2021/03/25 00:05:52;;;;;;;3.55;3.25;;;10.20;99.90;;;;;;4958282;29;20194;-76
2021/03/25 00:08:22;;;;;;;4.50;4.15;;;10.40;99.90;;;;;;4955781;23;20177;-77
2021/03/25 00:10:48;;;;;;;10.02;2.92;;;10.30;99.90;;;;;;4960130;28;20178;-77
2021/03/25 00:13:14;;;;;;;5.05;3.95;;;10.20;99.90;;;;;;4977355;28;20232;-78
2021/03/25 00:15:40;;;;;;;9.48;4.53;;;10.40;99.90;;;;;;4941799;29;20199;-77
2021/03/25 00:18:06;;;;;;;4.97;4.53;;;10.60;99.90;;;;;;4958022;29;20186;-78
2021/03/25 00:20:33;;;;;;;30.85;5.15;;;10.80;99.90;;;;;;4957914;29;20266;-77
2021/03/25 00:22:58;;;;;;;7.05;4.85;;;10.90;99.90;;;;;;4940881;29;20533;-77
2021/03/25 00:25:30;;;;;;;10.52;5.53;;;11.10;99.90;;;;;;4957849;28;20191;-77
2021/03/25 00:27:56;;;;;;;8.30;5.10;;;11.20;99.90;;;;;;4957818;29;20254;-77
2021/03/25 00:30:25;;;;;;;5.03;4.63;;;11.20;99.90;;;;;;4940581;29;20198;-76
2021/03/25 00:32:51;;;;;;;5.57;4.20;;;11.10;99.90;;;;;;4957702;29;20191;-76
2021/03/25 00:35:17;;;;;;;7.20;3.25;;;11.10;99.90;;;;;;4957611;28;20186;-77
2021/03/25 00:37:43;;;;;;;11.30;5.43;;;11.30;99.90;;;;;;4957653;29;20187;-76
2021/03/25 00:40:10;;;;;;;10.55;4.25;;;11.50;99.90;;;;;;4957866;29;20162;-76
2021/03/25 00:42:37;;;;;;;3.42;3.15;;;11.30;99.90;;;;;;4957666;29;20230;-76
2021/03/25 00:45:05;;;;;;;6.38;4.72;;;11.20;99.90;;;;;;4940396;29;20681;-76
2021/03/25 00:47:30;;;;;;;13.65;3.60;;;11.20;99.90;;;;;;4940426;29;20182;-76
2021/03/25 00:49:56;;;;;;;7.07;3.70;;;11.20;99.90;;;;;;4957466;29;20167;-76
2021/03/25 00:52:21;;;;;;;9.57;4.28;;;11.00;99.90;;;;;;4940417;29;20256;-77
2021/03/25 00:54:47;;;;;;;6.60;4.10;;;10.90;99.90;;;;;;4957921;28;20197;-77
2021/03/25 00:57:12;;;;;;;8.85;5.13;;;10.90;99.90;;;;;;4940218;29;20269;-76
2021/03/25 00:59:38;;;;;;;36.75;8.85;;;11.00;99.90;;;;;;4957577;29;20175;-77
2021/03/25 01:02:04;;;;;;;3.88;3.55;;;11.20;99.90;;;;;;4957500;29;20675;-77
2021/03/25 01:04:35;;;;;;;5.57;4.13;;;11.40;99.90;;;;;;4957366;28;20298;-77
2021/03/25 01:07:01;;;;;;;12.50;5.82;;;11.30;99.90;;;;;;4957463;29;20510;-76
2021/03/25 01:09:28;;;;;;;7.10;4.25;;;11.30;99.90;;;;;;4957130;29;20214;-77
2021/03/25 01:11:56;;;;;;;9.13;4.75;;;11.50;99.90;;;;;;4957243;29;20223;-77
2021/03/25 01:14:24;;;;;;;11.82;3.88;;;11.60;99.90;;;;;;4957320;28;20601;-76
2021/03/25 01:16:51;;;;;;;13.82;4.38;;;11.70;99.90;;;;;;4957179;29;20186;-76
2021/03/25 01:19:22;;;;;;;3.60;3.22;;;11.80;99.90;;;;;;4957155;29;20618;-76
2021/03/25 01:21:48;;;;;;;8.93;4.07;;;11.60;99.90;;;;;;4956972;29;20566;-76
2021/03/25 01:24:14;;;;;;;12.40;5.00;;;11.40;99.90;;;;;;4939569;29;20282;-77
2021/03/25 01:26:39;;;;;;;11.10;4.65;;;11.40;99.90;;;;;;4956790;29;20198;-76
2021/03/25 01:29:06;;;;;;;4.63;3.20;;;11.20;99.90;;;;;;4956778;29;20186;-77
2021/03/25 01:31:33;;;;;;;6.15;3.28;;;11.10;99.90;;;;;;4956694;29;20632;-76
2021/03/25 01:33:58;;;;;;;6.50;4.50;;;11.00;99.90;;;;;;4939290;29;20557;-77
2021/03/25 01:36:24;;;;;;;2.55;2.35;;;11.20;99.90;;;;;;4939305;29;20170;-76
2021/03/25 01:38:50;;;;;;;2.03;1.83;;;11.40;99.90;;;;;;4956979;28;20175;-76
2021/03/25 01:41:15;;;;;;;2.53;2.33;;;11.50;99.90;;;;;;4955849;29;20226;-77
2021/03/25 01:43:43;;;;;;;11.00;5.50;;;11.50;99.90;;;;;;4956521;28;20222;-77
2021/03/25 01:46:29;;;;;;;9.23;3.75;;;11.50;99.90;;;;;;4956702;28;20514;-77
2021/03/25 01:49:02;;;;;;;6.93;4.72;;;11.30;99.90;;;;;;4956600;28;20155;-77
2021/03/25 01:51:40;;;;;;;7.60;4.95;;;11.50;99.90;;;;;;4956662;28;20669;-77
2021/03/25 01:54:24;;;;;;;5.18;3.95;;;11.40;99.90;;;;;;4956142;28;20238;-77
2021/03/25 01:57:26;;;;;;;22.08;6.05;;;11.10;99.90;;;;;;4956721;29;20173;-77
2021/03/25 02:00:06;;;;;;;4.05;3.28;;;11.00;99.90;;;;;;4956545;28;20633;-77
2021/03/25 02:02:37;;;;;;;27.63;4.22;;;10.80;99.90;;;;;;4956306;28;20259;-76
2021/03/25 02:05:11;;;;;;;10.10;4.20;;;10.80;99.90;;;;;;4954688;28;20198;-77
2021/03/25 02:08:04;;;;;;;1.77;1.63;;;10.80;99.90;;;;;;4954981;29;20170;-77
2021/03/25 02:10:39;;;;;;;5.00;3.45;;;10.70;99.90;;;;;;4975066;28;20292;-77
2021/03/25 02:13:24;;;;;;;3.05;2.85;;;10.80;99.90;;;;;;4975273;28;20284;-77
2021/03/25 02:16:00;;;;;;;2.25;2.15;;;10.80;99.90;;;;;;4975583;28;20558;-77
2021/03/25 02:18:42;;;;;;;1.58;1.48;;;10.90;99.90;;;;;;4975536;28;20157;-77
2021/03/25 02:21:22;;;;;;;2.53;2.10;;;10.90;99.90;;;;;;4975231;28;20220;-77
2021/03/25 02:24:20;;;;;;;8.30;1.65;;;10.80;99.90;;;;;;4957847;28;20189;-76
2021/03/25 02:26:54;;;;;;;10.07;3.60;;;10.70;99.90;;;;;;4975288;28;20177;-76
2021/03/25 02:29:27;;;;;;;2.97;2.78;;;10.70;99.90;;;;;;4975192;28;20166;-77
2021/03/25 02:31:58;;;;;;;2.92;2.67;;;10.70;99.90;;;;;;4975089;28;20205;-77
2021/03/25 02:34:31;;;;;;;9.38;5.07;;;10.60;99.90;;;;;;4957547;28;20220;-77
2021/03/25 02:37:05;;;;;;;2.00;1.90;;;10.80;99.90;;;;;;4974894;28;20201;-77
2021/03/25 02:39:39;;;;;;;3.42;3.08;;;11.00;99.90;;;;;;4975191;28;20624;-77
2021/03/25 02:42:10;;;;;;;7.70;3.10;;;11.00;99.90;;;;;;4975027;28;20534;-77
2021/03/25 02:44:53;;;;;;;4.15;3.35;;;10.90;99.90;;;;;;4974956;28;20189;-77
2021/03/25 02:47:20;;;;;;;3.20;2.38;;;10.60;99.90;;;;;;4974839;28;20176;-77
2021/03/25 02:50:16;;;;;;;5.55;2.55;;;10.50;99.90;;;;;;4975193;28;20217;-76
2021/03/25 02:52:46;;;;;;;4.88;2.83;;;10.60;99.90;;;;;;4963988;28;20224;-77
2021/03/25 02:55:14;;;;;;;5.78;3.50;;;10.70;99.90;;;;;;4974962;28;20604;-77
2021/03/25 02:57:58;;;;;;;4.35;1.85;;;10.60;99.90;;;;;;4974713;28;20174;-77
2021/03/25 03:00:41;;;;;;;2.90;1.98;;;10.40;99.90;;;;;;4973989;28;20185;-76
2021/03/25 03:03:15;;;;;;;2.80;2.63;;;10.30;99.90;;;;;;4974888;28;20204;-77
2021/03/25 03:05:42;;;;;;;2.17;2.05;;;10.40;99.90;;;;;;4974673;28;20186;-76
2021/03/25 03:08:18;;;;;;;20.15;2.33;;;10.60;99.90;;;;;;4974522;28;20181;-78
2021/03/25 03:10:52;;;;;;;5.97;3.30;;;10.70;99.90;;;;;;4974525;28;20645;-77
2021/03/25 03:13:22;;;;;;;2.25;2.13;;;10.80;99.90;;;;;;4974384;28;20202;-76
2021/03/25 03:15:59;;;;;;;6.68;3.08;;;10.90;99.90;;;;;;4956967;28;20630;-77
2021/03/25 03:18:37;;;;;;;2.20;2.10;;;10.80;99.90;;;;;;4974468;28;20216;-77
2021/03/25 03:21:07;;;;;;;4.63;3.72;;;10.70;99.90;;;;;;4957024;28;20170;-77
2021/03/25 03:23:34;;;;;;;9.63;3.97;;;10.70;99.90;;;;;;4974290;28;20196;-76
2021/03/25 03:26:12;;;;;;;5.30;4.60;;;10.70;99.90;;;;;;4956908;28;20162;-77
2021/03/25 03:28:47;;;;;;;5.53;2.05;;;10.50;99.90;;;;;;4974646;28;20162;-77
2021/03/25 03:31:21;;;;;;;4.15;2.95;;;10.40;99.90;;;;;;4974747;28;20240;-78
2021/03/25 03:33:53;;;;;;;10.35;3.50;;;10.30;99.90;;;;;;4974086;28;20212;-78
2021/03/25 03:36:23;;;;;;;1.73;1.58;;;10.20;99.90;;;;;;4957071;28;20206;-77
2021/03/25 03:39:04;;;;;;;3.58;3.25;;;10.10;99.90;;;;;;4974519;28;20173;-76
2021/03/25 03:41:44;;;;;;;2.22;1.98;;;10.30;99.90;;;;;;4974181;28;20732;-78
2021/03/25 03:44:19;;;;;;;2.78;2.22;;;10.50;99.90;;;;;;4974015;28;20193;-78
2021/03/25 03:46:46;;;;;;;2.58;2.25;;;10.70;99.90;;;;;;4974095;28;20656;-77
2021/03/25 03:49:20;;;;;;;3.75;3.03;;;10.70;99.90;;;;;;4974138;28;20584;-77
2021/03/25 03:51:58;;;;;;;2.72;2.53;;;10.90;99.90;;;;;;4956599;28;20193;-78
2021/03/25 03:54:23;;;;;;;2.55;2.10;;;10.60;99.90;;;;;;4974021;28;20669;-77
2021/03/25 03:57:13;;;;;;;7.22;4.70;;;10.50;99.90;;;;;;4974090;28;20252;-78
2021/03/25 04:00:00;;;;;;;6.78;3.60;;;10.40;99.90;;;;;;4974250;28;20162;-77
2021/03/25 04:02:40;;;;;;;1.48;1.40;;;10.50;99.90;;;;;;4974111;28;20608;-77
2021/03/25 04:05:12;;;;;;;3.35;2.38;;;10.60;99.90;;;;;;4973827;28;20563;-77
2021/03/25 04:07:43;;;;;;;7.35;2.75;;;10.80;99.90;;;;;;4974167;28;20170;-77
2021/03/25 04:10:23;;;;;;;1.52;1.42;;;10.60;99.90;;;;;;4974532;28;20225;-76
2021/03/25 04:12:54;;;;;;;3.88;2.53;;;10.90;99.90;;;;;;4977687;28;20645;-77
2021/03/25 04:15:26;;;;;;;3.13;2.83;;;10.60;99.90;;;;;;4978137;28;20535;-77
2021/03/25 04:18:14;;;;;;;5.93;1.83;;;10.40;99.90;;;;;;4960310;28;20170;-80
2021/03/25 04:20:48;;;;;;;3.47;2.30;;;10.40;99.90;;;;;;4976782;28;20637;-78
2021/03/25 04:23:17;;;;;;;6.45;1.65;;;10.50;99.90;;;;;;4977320;28;20232;-77
2021/03/25 04:25:50;;;;;;;2.35;1.88;;;10.40;99.90;;;;;;4977693;28;20189;-78
2021/03/25 04:28:15;;;;;;;3.50;3.20;;;10.30;99.90;;;;;;4977733;28;20250;-78
2021/03/25 04:30:45;;;;;;;1.65;1.55;;;10.20;99.90;;;;;;4977460;28;20301;-78
2021/03/25 04:33:22;;;;;;;2.83;2.60;;;10.30;99.90;;;;;;4977544;28;20241;-78
2021/03/25 04:35:48;;;;;;;1.92;1.80;;;10.30;99.90;;;;;;4977539;28;20169;-78
2021/03/25 04:38:16;;;;;;;23.40;4.85;;;10.30;99.90;;;;;;4977464;28;20186;-77
2021/03/25 04:40:43;;;;;;;10.05;3.05;;;10.20;99.90;;;;;;4977261;28;20166;-77
2021/03/25 04:43:10;;;;;;;2.67;2.15;;;10.10;99.90;;;;;;4977319;28;20659;-76
2021/03/25 04:45:57;;;;;;;7.43;2.97;;;9.90;99.90;;;;;;4977092;28;20289;-77
2021/03/25 04:48:31;;;;;;;2.47;1.50;;;9.80;99.90;;;;;;4977450;28;20180;-77
2021/03/25 04:51:12;;;;;;;3.63;1.38;;;9.80;99.90;;;;;;4977190;28;20158;-78
2021/03/25 04:53:39;;;;;;;2.70;2.40;;;9.70;99.90;;;;;;4977003;28;20292;-77
2021/03/25 04:56:10;;;;;;;11.80;3.42;;;9.80;99.90;;;;;;4977047;28;20214;-77
2021/03/25 04:59:05;;;;;;;1.63;1.52;;;9.80;99.90;;;;;;4977315;28;20169;-77
2021/03/25 05:01:32;;;;;;;6.63;3.03;;;9.70;99.90;;;;;;4940050;28;20209;-77
2021/03/25 05:04:01;;;;;;;3.88;2.20;;;9.80;99.90;;;;;;4976990;28;20196;-77
2021/03/25 05:06:31;;;;;;;2.88;2.58;;;9.70;99.90;;;;;;4976905;28;20166;-75
2021/03/25 05:08:57;;;;;;;3.75;3.00;;;9.80;99.90;;;;;;4976509;28;20578;-77
2021/03/25 05:11:25;;;;;;;4.20;3.17;;;9.80;99.90;;;;;;4976479;28;20265;-77
2021/03/25 05:13:55;;;;;;;4.10;2.80;;;10.00;99.90;;;;;;4976156;28;20210;-77
2021/03/25 05:16:43;;;;;;;2.67;2.47;;;9.80;99.90;;;;;;4976280;28;20169;-77
2021/03/25 05:19:15;;;;;;;4.75;3.72;;;9.60;99.90;;;;;;4976438;28;20232;-76
2021/03/25 05:21:40;;;;;;;1.35;1.25;;;9.80;99.90;;;;;;4975707;28;20154;-77
2021/03/25 05:24:23;;;;;;;3.25;2.95;;;10.00;99.90;;;;;;4976074;28;20193;-76
2021/03/25 05:27:16;;;;;;;2.75;1.70;;;10.10;99.90;;;;;;4976125;28;20535;-77
2021/03/25 05:29:43;;;;;;;1.95;1.85;;;10.10;99.90;;;;;;4946099;28;20205;-77
2021/03/25 05:32:12;;;;;;;6.57;4.18;;;10.20;99.90;;;;;;4976554;28;20196;-78
2021/03/25 05:34:39;;;;;;;1.58;1.48;;;10.20;99.90;;;;;;4976223;28;20204;-78
2021/03/25 05:37:07;;;;;;;3.08;1.85;;;10.10;99.90;;;;;;4976730;28;20209;-78
2021/03/25 05:39:33;;;;;;;3.55;2.75;;;10.10;99.90;;;;;;4976985;28;20174;-78
2021/03/25 05:42:26;;;;;;;4.43;4.03;;;9.90;99.90;;;;;;4976659;28;20255;-78
2021/03/25 05:45:18;;;;;;;3.58;1.90;;;10.00;99.90;;;;;;4976146;28;20239;-77
2021/03/25 05:48:08;;;;;;;6.63;3.25;;;9.90;99.90;;;;;;4975590;28;20519;-77
2021/03/25 05:50:53;;;;;;;3.97;3.67;;;10.00;99.90;;;;;;4975889;28;20182;-78
2021/03/25 05:53:36;;;;;;;6.80;2.50;;;10.00;99.90;;;;;;4976058;28;20201;-77
2021/03/25 05:56:29;;;;;;;1.08;0.75;;;10.00;99.90;;;;;;4975945;28;20259;-78
2021/03/25 05:59:01;;;;;;;4.00;2.72;;;10.20;99.90;;;;;;4958279;28;20616;-77
2021/03/25 06:01:27;;;;;;;8.25;2.05;;;10.10;99.90;;;;;;4975816;28;20170;-78
2021/03/25 06:04:04;;;;;;;6.13;3.90;;;10.00;99.90;;;;;;4975425;28;20201;-77
2021/03/25 06:06:56;;;;;;;3.53;2.20;;;10.00;99.90;;;;;;4975698;28;20256;-77
2021/03/25 06:09:40;;;;;;;3.42;2.75;;;10.00;99.90;;;;;;4926333;28;20244;-77
2021/03/25 06:12:26;;;;;;;2.65;2.45;;;10.10;99.90;;;;;;4975271;28;20170;-76
2021/03/25 06:15:12;;;;;;;4.05;2.60;;;10.10;99.90;;;;;;4957667;28;20657;-76
2021/03/25 06:17:56;;;;;;;2.40;1.77;;;10.20;99.90;;;;;;4976440;28;20174;-75
2021/03/25 06:20:42;;;;;;;23.98;3.15;;;10.30;99.90;;;;;;4976257;28;20173;-75
2021/03/25 06:23:32;;;;;;;5.40;3.10;;;10.20;99.90;;;;;;4975280;28;20174;-77
2021/03/25 06:26:27;;;;;;;3.38;1.85;;;9.90;99.90;;;;;;4975181;28;20169;-75
2021/03/25 06:29:07;;;;;;;2.08;1.98;;;10.00;99.90;;;;;;4975000;28;20798;-75
2021/03/25 06:32:09;;;;;;;2.45;2.25;;;10.20;99.90;;;;;;4982874;28;20166;-76
2021/03/25 06:34:50;;;;;;;1.27;1.25;;;10.30;99.90;;;;;;4982322;28;20205;-76
2021/03/25 06:37:23;;;;;;;6.07;2.03;;;10.20;99.90;;;;;;4980631;28;20149;-77
2021/03/25 06:39:52;;;;;;;2.40;2.20;;;10.20;99.90;;;;;;4981675;28;20178;-76
2021/03/25 06:42:27;;;;;;;2.90;2.63;;;10.30;99.90;;;;;;4958628;28;20641;-76
2021/03/25 06:45:06;;;;;;;1.80;1.70;;;10.30;99.90;;;;;;4957526;28;20679;-78
2021/03/25 06:48:01;;;;;;;2.15;2.05;;;10.40;99.90;;;;;;4974585;28;20377;-77
2021/03/25 06:50:33;;;;;;;5.47;2.50;;;10.20;99.90;;;;;;4972065;28;20547;-76
2021/03/25 06:53:25;;;;;;;1.50;1.42;;;10.40;99.90;;;;;;4974254;28;20194;-76
2021/03/25 06:55:58;;;;;;;4.78;2.47;;;10.30;99.90;;;;;;4957050;28;20169;-77
2021/03/25 06:58:31;;;;;;;1.85;1.75;;;10.40;99.90;;;;;;4956900;28;20178;-77
2021/03/25 07:01:27;;;;;;;3.88;3.42;;;10.40;99.90;;;;;;4974356;28;20204;-82
2021/03/25 07:03:56;;;;;;;3.40;2.35;;;10.60;99.90;;;;;;4940223;28;20205;-76
2021/03/25 07:06:25;;;;;;;2.85;2.65;;;10.60;99.90;;;;;;4974148;28;20170;-77
2021/03/25 07:08:54;;;;;;;1.85;1.60;;;10.60;99.90;;;;;;4973940;28;20209;-78
2021/03/25 07:11:21;;;;;;;2.55;2.35;;;10.60;99.90;;;;;;4973878;28;20182;-77
2021/03/25 07:13:55;;;;;;;4.88;1.70;;;10.50;99.90;;;;;;4974121;28;20365;-75
2021/03/25 07:16:22;;;;;;;11.38;4.57;;;10.70;99.90;;;;;;4973769;28;20146;-75
2021/03/25 07:19:03;;;;;;;1.65;1.48;;;10.90;99.90;;;;;;4974152;28;20165;-76
2021/03/25 07:21:36;;;;;;;2.63;2.45;;;11.10;99.90;;;;;;4973349;28;20173;-74
2021/03/25 07:24:14;;;;;;;2.35;1.52;;;11.30;99.90;;;;;;4973616;28;20190;-73
2021/03/25 07:26:43;;;;;;;2.63;2.42;;;11.40;99.90;;;;;;4972795;28;20320;-75
2021/03/25 07:29:11;;;;;;;4.82;2.15;;;11.20;99.90;;;;;;4973595;28;20245;-76
2021/03/25 07:32:05;;;;;;;3.65;3.35;;;11.30;99.90;;;;;;4973413;28;20178;-75
2021/03/25 07:34:43;;;;;;;15.40;4.07;;;11.40;99.90;;;;;;4959465;28;20222;-76
2021/03/25 07:37:11;;;;;;;1.33;1.27;;;11.40;99.90;;;;;;4973483;28;20645;-76
2021/03/25 07:39:50;;;;;;;5.93;3.17;;;11.40;99.90;;;;;;4973814;28;20181;-76
2021/03/25 07:42:34;;;;;;;3.55;3.28;;;11.20;99.90;;;;;;4973610;28;20249;-76
2021/03/25 07:45:33;;;;;;;6.70;3.03;;;11.20;99.90;;;;;;4974402;28;20189;-74
2021/03/25 07:48:25;;;;;;;8.57;3.47;;;11.10;99.90;;;;;;4977627;28;20189;-77
2021/03/25 07:51:07;;;;;;;4.20;3.00;;;11.30;99.90;;;;;;4977103;28;20174;-85
2021/03/25 07:53:33;;;;;;;1.98;1.85;;;11.30;99.90;;;;;;4977565;28;20209;-76
2021/03/25 07:56:11;;;;;;;1.75;1.65;;;11.10;99.90;;;;;;4977210;28;20206;-76
2021/03/25 07:58:36;;;;;;;6.75;2.45;;;11.10;99.90;;;;;;4977663;28;20173;-77
2021/03/25 08:01:19;;;;;;;4.05;2.47;;;11.20;99.90;;;;;;4975329;28;20173;-76
2021/03/25 08:03:45;;;;;;;3.58;3.03;;;11.00;99.90;;;;;;4979996;28;20177;-77
2021/03/25 08:06:24;;;;;;;2.47;2.28;;;11.20;99.90;;;;;;4977119;28;20672;-77
2021/03/25 08:09:07;;;;;;;5.72;3.33;;;11.20;99.90;;;;;;4977559;28;20236;-90
2021/03/25 08:11:35;;;;;;;5.53;2.33;;;11.20;99.90;;;;;;4967180;28;20233;-79
2021/03/25 08:22:25;;;;;;;11.85;2.05;;;11.30;99.90;;;;;;4955911;28;20219;-80
2021/03/25 08:25:03;;;;;;;3.58;2.33;;;11.30;99.90;;;;;;4927343;29;20206;-79
2021/03/25 08:27:49;;;;;;;5.20;1.83;;;11.50;99.90;;;;;;4935833;29;20297;-79
2021/03/25 08:30:50;;;;;;;3.50;2.17;;;11.70;99.90;;;;;;4938237;28;20246;-78
2021/03/25 08:33:30;;;;;;;1.27;1.17;;;12.00;99.90;;;;;;4921193;29;20217;-79
2021/03/25 08:36:01;;;;;;;2.50;1.13;;;11.90;99.90;;;;;;4944678;29;20178;-80
2021/03/25 08:39:06;;;;;;;3.08;1.77;;;12.00;99.90;;;;;;4938349;29;20195;-76
2021/03/25 08:41:48;;;;;;;2.25;2.05;;;11.60;99.90;;;;;;4936435;29;21003;-76
2021/03/25 08:44:50;;;;;;;2.05;1.95;;;11.60;99.90;;;;;;4936984;29;20705;-76
2021/03/25 08:47:38;;;;;;;1.10;1.05;;;11.50;99.90;;;;;;4934367;29;20682;-76
2021/03/25 08:50:36;;;;;;;17.98;3.55;;;11.70;99.90;;;;;;4893099;29;20182;-75
2021/03/25 08:53:41;;;;;;;2.05;1.50;;;11.60;99.90;;;;;;4937108;29;20199;-77
2021/03/25 08:56:46;;;;;;;5.07;2.10;;;11.80;99.90;;;;;;4933807;29;20595;-76
2021/03/25 08:59:20;;;;;;;1.30;1.23;;;12.00;99.90;;;;;;4933607;29;20577;-76
2021/03/25 09:01:52;;;;;;;1.85;1.75;;;12.20;99.90;;;;;;4937058;29;20253;-76
2021/03/25 09:04:20;;;;;;;3.60;1.40;;;12.30;99.90;;;;;;4936966;29;20175;-79
2021/03/25 09:06:48;;;;;;;3.72;1.67;;;12.40;99.90;;;;;;4936718;29;20188;-77
2021/03/25 09:09:37;;;;;;;2.72;1.23;;;12.00;99.90;;;;;;4919362;29;20167;-76
2021/03/25 09:12:10;;;;;;;3.40;1.50;;;11.90;99.90;;;;;;4936492;29;20178;-77
2021/03/25 09:14:36;;;;;;;5.85;2.55;;;12.00;99.90;;;;;;4936866;29;20189;-79
2021/03/25 09:17:04;;;;;;;2.50;1.48;;;12.20;99.90;;;;;;4936233;29;20550;-78
2021/03/25 09:19:37;;;;;;;6.03;1.98;;;12.30;99.90;;;;;;4936141;29;20254;-77
2021/03/25 09:22:03;;;;;;;1.25;1.23;;;12.50;99.90;;;;;;4936527;29;20223;-77
2021/03/25 09:24:29;;;;;;;5.03;1.70;;;12.60;99.90;;;;;;4919531;29;20325;-77
2021/03/25 09:26:57;;;;;;;1.73;1.63;;;12.70;99.90;;;;;;4946832;29;20662;-77
2021/03/25 09:29:31;;;;;;;1.83;1.70;;;12.50;99.90;;;;;;4946498;29;20772;-77
2021/03/25 09:31:56;;;;;;;1.23;1.13;;;12.40;99.90;;;;;;4920874;29;20200;-79
2021/03/25 09:34:41;;;;;;;0.93;0.93;;;12.50;99.90;;;;;;4936088;29;20622;-76
2021/03/25 09:37:16;;;;;;;1.65;1.55;;;12.30;99.90;;;;;;4935359;29;20203;-75
2021/03/25 09:39:41;;;;;;;1.02;0.90;;;12.40;99.90;;;;;;4935284;29;20186;-75
2021/03/25 09:42:16;;;;;;;2.60;1.23;;;12.30;99.90;;;;;;4935842;29;20178;-75
2021/03/25 09:44:43;;;;;;;1.25;0.88;;;12.20;99.90;;;;;;4936637;29;20611;-86
2021/03/25 09:47:16;;;;;;;2.75;1.63;;;12.20;99.90;;;;;;4919409;29;20203;-75
2021/03/25 09:49:54;;;;;;;0.98;0.90;;;12.40;99.90;;;;;;4935825;29;20250;-75
2021/03/25 09:52:35;;;;;;;2.05;1.95;;;12.60;99.90;;;;;;4918679;29;20195;-78
2021/03/25 09:55:01;;;;;;;0.70;0.70;;;12.80;99.90;;;;;;4936032;29;20159;-76
2021/03/25 09:57:29;;;;;;;1.58;1.48;;;12.90;99.90;;;;;;4935882;29;20312;-75
2021/03/25 10:00:21;;;;;;;7.32;1.13;;;12.90;99.90;;;;;;4942954;29;20581;-74
2021/03/25 10:02:53;;;;;;;1.92;1.80;;;12.70;99.90;;;;;;4952415;29;20218;-77
2021/03/25 10:05:28;;;;;;;1.52;1.00;;;12.80;99.90;;;;;;4944850;29;20185;-77
2021/03/25 10:07:59;;;;;;;3.83;1.63;;;12.70;99.90;;;;;;4944617;28;20194;-77
2021/03/25 10:10:41;;;;;;;2.60;1.75;;;12.80;99.90;;;;;;4932452;29;20355;-76
2021/03/25 10:13:17;;;;;;;3.53;1.80;;;13.00;99.90;;;;;;4939496;29;20221;-75
2021/03/25 10:15:51;;;;;;;2.35;1.88;;;13.10;99.90;;;;;;4953943;29;20542;-75
2021/03/25 10:18:17;;;;;;;5.03;2.20;;;13.00;99.90;;;;;;4933149;29;20300;-75
2021/03/25 10:20:58;;;;;;;1.88;1.50;;;13.10;99.90;;;;;;4930151;29;20274;-75
2021/03/25 10:23:28;;;;;;;1.58;1.48;;;13.20;99.90;;;;;;4916269;29;20188;-75
2021/03/25 10:26:25;;;;;;;5.55;2.72;;;13.30;99.90;;;;;;4940606;29;20634;-75
2021/03/25 10:29:03;;;;;;;6.10;2.17;;;13.10;99.90;;;;;;4926170;29;20207;-75
2021/03/25 10:31:44;;;;;;;3.47;1.42;;;12.80;99.90;;;;;;4919204;29;20185;-75
2021/03/25 10:34:26;;;;;;;3.90;3.60;;;13.00;99.90;;;;;;4925143;29;20218;-77
2021/03/25 10:37:13;;;;;;;5.90;2.63;;;13.20;99.90;;;;;;4936108;29;20564;-76
2021/03/25 10:39:43;;;;;;;5.15;2.75;;;13.70;99.90;;;;;;4945597;29;20750;-76
2021/03/25 10:42:24;;;;;;;2.92;2.33;;;14.10;99.90;;;;;;4954063;29;20179;-76
2021/03/25 10:44:50;;;;;;;2.10;1.52;;;14.20;99.90;;;;;;4937500;29;20302;-76
2021/03/25 10:47:30;;;;;;;3.47;2.28;;;14.10;99.90;;;;;;4940387;29;20987;-78
2021/03/25 10:50:01;;;;;;;1.67;1.58;;;13.80;99.90;;;;;;4935814;29;20186;-77
2021/03/25 10:52:41;;;;;;;3.53;1.08;;;13.80;99.90;;;;;;4922706;29;20680;-76
2021/03/25 10:55:24;;;;;;;2.40;2.20;;;13.70;99.90;;;;;;4934461;29;20171;-77
2021/03/25 10:57:52;;;;;;;5.88;2.60;;;13.50;99.90;;;;;;4934946;29;20191;-77
2021/03/25 11:00:26;;;;;;;1.50;1.40;;;13.40;99.90;;;;;;4934740;29;20210;-76
2021/03/25 11:02:51;;;;;;;1.02;1.02;;;13.20;99.90;;;;;;4933944;29;20164;-76
2021/03/25 11:05:39;;;;;;;3.22;2.63;;;13.40;99.90;;;;;;4933837;29;20182;-76
2021/03/25 11:08:30;;;;;;;1.70;1.58;;;13.60;99.90;;;;;;4933819;29;20254;-74
2021/03/25 11:10:57;;;;;;;3.20;1.55;;;13.80;99.90;;;;;;4934676;29;20163;-75
2021/03/25 11:13:25;;;;;;;1.75;0.80;;;13.70;99.90;;;;;;4923761;29;20195;-76
2021/03/25 11:16:16;;;;;;;2.33;1.58;;;13.80;99.90;;;;;;4934340;29;20639;-75
2021/03/25 11:19:21;;;;;;;1.88;1.77;;;13.60;99.90;;;;;;4917100;29;20195;-77
2021/03/25 11:21:47;;;;;;;5.38;3.45;;;13.40;99.90;;;;;;4837882;29;20268;-75
2021/03/25 11:24:27;;;;;;;2.08;1.52;;;13.30;99.90;;;;;;4914315;29;20882;-74
2021/03/25 11:26:58;;;;;;;1.88;1.77;;;13.20;99.90;;;;;;4934382;29;20186;-77
2021/03/25 11:29:28;;;;;;;3.35;2.03;;;13.30;99.90;;;;;;4921216;29;20749;-76
2021/03/25 11:32:21;;;;;;;2.20;1.17;;;13.50;99.90;;;;;;4933996;29;20182;-76
2021/03/25 11:34:50;;;;;;;2.10;0.93;;;13.90;99.90;;;;;;4916231;29;20281;-77
2021/03/25 11:37:25;;;;;;;1.95;1.65;;;14.40;99.90;;;;;;4934405;29;20203;-77
2021/03/25 11:40:09;;;;;;;2.10;1.90;;;14.70;99.90;;;;;;4934209;29;20159;-76
2021/03/25 11:42:35;;;;;;;4.72;1.55;;;15.00;99.90;;;;;;4934377;29;20714;-76
2021/03/25 11:45:03;;;;;;;1.50;1.38;;;15.30;99.90;;;;;;4934244;29;20251;-76
2021/03/25 11:47:41;;;;;;;1.05;0.93;;;15.50;99.90;;;;;;4934777;29;20258;-76
2021/03/25 11:50:31;;;;;;;0.63;0.52;;;15.50;99.90;;;;;;4916813;29;20238;-76
2021/03/25 11:53:00;;;;;;;1.63;0.85;;;15.50;99.90;;;;;;4934536;29;20202;-76
2021/03/25 11:55:50;;;;;;;2.97;1.77;;;15.50;99.90;;;;;;4934166;29;20631;-79
2021/03/25 11:58:19;;;;;;;1.13;0.80;;;15.20;99.90;;;;;;4952851;29;20190;-76
2021/03/25 12:01:21;;;;;;;1.10;1.10;;;15.10;99.90;;;;;;4953307;29;20163;-76
2021/03/25 12:03:49;;;;;;;4.28;1.92;;;14.90;99.90;;;;;;4933704;29;20665;-76
2021/03/25 12:06:23;;;;;;;3.88;0.82;;;14.90;99.90;;;;;;4933947;29;20264;-78
2021/03/25 12:09:17;;;;;;;2.38;1.48;;;14.80;99.90;;;;;;4935686;29;20198;-78
2021/03/25 12:11:46;;;;;;;1.17;1.17;;;14.60;99.90;;;;;;4945048;29;20175;-76
2021/03/25 12:14:12;;;;;;;1.85;0.93;;;14.40;99.90;;;;;;4945449;28;20210;-76
2021/03/25 12:16:38;;;;;;;2.00;1.17;;;14.50;99.90;;;;;;4952565;29;20182;-76
2021/03/25 12:19:05;;;;;;;1.00;1.00;;;14.50;99.90;;;;;;4953416;29;20178;-77
2021/03/25 12:21:32;;;;;;;0.75;0.75;;;14.60;99.90;;;;;;4953431;29;20222;-76
2021/03/25 12:24:01;;;;;;;9.40;2.80;;;14.60;99.90;;;;;;4953539;29;20626;-77
2021/03/25 12:26:28;;;;;;;2.75;1.60;;;14.60;99.90;;;;;;4952383;28;20182;-76
2021/03/25 12:28:54;;;;;;;0.73;0.70;;;14.70;99.90;;;;;;4953375;29;20222;-76
2021/03/25 12:31:27;;;;;;;1.75;1.65;;;14.50;99.90;;;;;;4952724;28;20162;-76
2021/03/25 12:33:52;;;;;;;1.92;1.25;;;14.90;99.90;;;;;;4936899;29;20199;-76
2021/03/25 12:36:20;;;;;;;1.02;0.88;;;15.00;99.90;;;;;;4919683;29;20706;-78
2021/03/25 12:38:46;;;;;;;1.40;1.30;;;15.30;99.90;;;;;;4937653;29;20175;-76
2021/03/25 12:41:26;;;;;;;1.20;1.20;;;15.30;99.90;;;;;;4937626;29;20169;-75
2021/03/25 12:43:52;;;;;;;2.03;0.93;;;15.50;99.90;;;;;;4945930;28;20185;-76
2021/03/25 12:46:18;;;;;;;5.50;1.88;;;15.50;99.90;;;;;;4956478;29;20167;-77
2021/03/25 12:48:44;;;;;;;1.40;0.63;;;15.40;99.90;;;;;;4948882;29;20183;-76
2021/03/25 12:51:13;;;;;;;1.00;0.90;;;15.40;99.90;;;;;;4948142;29;20183;-75
2021/03/25 12:53:40;;;;;;;1.55;1.13;;;15.30;99.90;;;;;;4920373;29;20214;-76
2021/03/25 12:56:09;;;;;;;0.60;0.60;;;15.20;99.90;;;;;;4936792;29;20207;-76
2021/03/25 12:58:40;;;;;;;1.55;1.02;;;15.20;99.90;;;;;;4937446;29;20171;-77
2021/03/25 13:01:09;;;;;;;1.45;1.35;;;15.40;99.90;;;;;;4937959;29;20164;-76
2021/03/25 13:03:36;;;;;;;5.60;1.13;;;15.50;99.90;;;;;;4936819;29;20172;-76
2021/03/25 13:06:03;;;;;;;2.30;2.10;;;15.30;99.90;;;;;;4936857;29;20167;-76
2021/03/25 13:08:28;;;;;;;1.02;1.02;;;15.30;99.90;;;;;;4936220;29;20246;-77
2021/03/25 13:10:54;;;;;;;2.17;0.82;;;15.50;99.90;;;;;;4937219;29;20160;-77
2021/03/25 13:13:20;;;;;;;23.60;1.58;;;15.40;99.90;;;;;;4937157;29;20573;-75
2021/03/25 13:15:45;;;;;;;1.13;1.13;;;15.10;99.90;;;;;;4937108;29;20318;-76
2021/03/25 13:18:12;;;;;;;1.30;1.20;;;14.80;99.90;;;;;;4936576;29;20199;-76
2021/03/25 13:20:39;;;;;;;1.10;1.10;;;14.60;99.90;;;;;;4936677;29;20171;-75
2021/03/25 13:23:05;;;;;;;2.83;1.45;;;14.30;99.90;;;;;;4936598;29;20222;-76
2021/03/25 13:25:34;;;;;;;1.27;0.80;;;14.30;99.90;;;;;;4936552;29;20179;-75
2021/03/25 13:28:00;;;;;;;0.85;0.85;;;14.30;99.90;;;;;;4935631;29;20210;-76
2021/03/25 13:30:26;;;;;;;2.05;0.93;;;14.50;99.90;;;;;;4936761;29;20175;-76
2021/03/25 13:32:52;;;;;;;2.50;2.20;;;14.40;99.90;;;;;;4919854;29;20685;-75